createdAt,value
2023-01-27T00:01:27.770Z,101457.53
2023-01-27T00:03:55.811Z,101457.69
2023-01-27T00:06:25.921Z,101462.31
2023-01-27T00:08:53.709Z,101458.19
2023-01-27T00:11:38.979Z,101452.84
2023-01-27T00:14:07.362Z,101451.91
2023-01-27T00:16:39.547Z,101455.84
2023-01-27T00:19:10.419Z,101451.09
2023-01-27T00:21:55.427Z,101451.25
2023-01-27T00:24:38.248Z,101441.88
2023-01-27T00:27:07.913Z,101446.97
2023-01-27T00:29:35.739Z,101440.06
2023-01-27T00:32:23.095Z,101441.38
2023-01-27T00:34:51.184Z,101436.78
2023-01-27T00:37:20.700Z,101437.41
2023-01-27T00:39:48.875Z,101432.63
2023-01-27T00:42:20.142Z,101431.50
2023-01-27T00:45:08.672Z,101423.69
2023-01-27T00:47:40.877Z,101433.78
2023-01-27T00:50:09.529Z,101431.63
2023-01-27T00:52:39.097Z,101428.34
2023-01-27T00:55:07.301Z,101434.47
2023-01-27T00:57:35.711Z,101425.06
2023-01-27T01:00:03.303Z,101434.56
2023-01-27T01:02:30.940Z,101440.50
2023-01-27T01:05:00.510Z,101430.28
2023-01-27T01:07:28.758Z,101430.13
2023-01-27T01:09:56.314Z,101429.97
2023-01-27T01:12:24.227Z,101420.78
2023-01-27T01:14:55.104Z,101426.88
2023-01-27T01:17:22.778Z,101417.50
2023-01-27T01:19:53.900Z,101421.25
2023-01-27T01:22:23.099Z,101421.97
2023-01-27T01:24:51.291Z,101427.88
2023-01-27T01:27:22.579Z,101429.81
2023-01-27T01:29:50.250Z,101429.50
2023-01-27T01:32:18.274Z,101427.97
2023-01-27T01:34:46.363Z,101420.75
2023-01-27T01:37:16.717Z,101427.47
2023-01-27T01:39:46.407Z,101422.22
2023-01-27T01:42:14.544Z,101428.69
2023-01-27T01:44:44.698Z,101423.72
2023-01-27T01:47:16.422Z,101430.25
2023-01-27T01:49:45.677Z,101429.03
2023-01-27T01:52:16.192Z,101429.84
2023-01-27T01:54:47.936Z,101440.00
2023-01-27T01:57:17.796Z,101430.00
2023-01-27T01:59:47.061Z,101436.75
2023-01-27T02:02:18.203Z,101438.88
2023-01-27T02:04:49.500Z,101436.72
2023-01-27T02:07:20.882Z,101432.56
2023-01-27T02:09:50.649Z,101427.09
2023-01-27T02:12:18.174Z,101434.63
2023-01-27T02:14:46.371Z,101437.56
2023-01-27T02:17:14.890Z,101435.13
2023-01-27T02:19:47.603Z,101446.13
2023-01-27T02:22:19.312Z,101434.28
2023-01-27T02:24:49.722Z,101444.81
2023-01-27T02:27:18.921Z,101441.34
2023-01-27T02:29:46.559Z,101447.91
2023-01-27T02:32:25.881Z,101447.47
2023-01-27T02:34:55.772Z,101448.78
2023-01-27T02:37:27.297Z,101451.06
2023-01-27T02:39:56.877Z,101446.72
2023-01-27T02:42:26.572Z,101439.13
2023-01-27T02:44:54.247Z,101444.56
2023-01-27T02:47:22.549Z,101436.66
2023-01-27T02:49:50.837Z,101437.53
2023-01-27T02:52:18.602Z,101445.22
2023-01-27T02:54:46.776Z,101438.03
2023-01-27T02:57:15.093Z,101455.19
2023-01-27T02:59:46.887Z,101452.09
2023-01-27T03:02:15.343Z,101447.28
2023-01-27T03:04:43.334Z,101442.91
2023-01-27T03:07:11.408Z,101444.31
2023-01-27T03:09:39.513Z,101444.66
2023-01-27T03:12:22.670Z,101444.31
2023-01-27T03:15:10.246Z,101443.41
2023-01-27T03:17:56.354Z,101448.47
2023-01-27T03:20:24.792Z,101456.91
2023-01-27T03:22:52.424Z,101452.69
2023-01-27T03:25:20.826Z,101456.25
2023-01-27T03:27:49.069Z,101469.09
2023-01-27T03:30:18.463Z,101459.38
2023-01-27T03:32:47.935Z,101457.13
2023-01-27T03:35:17.078Z,101462.69
2023-01-27T03:38:02.625Z,101466.78
2023-01-27T03:40:48.309Z,101463.44
2023-01-27T03:43:33.912Z,101459.19
2023-01-27T03:46:19.964Z,101460.97
2023-01-27T03:49:00.214Z,101466.25
2023-01-27T03:51:31.408Z,101462.25
2023-01-27T03:54:01.321Z,101464.44
2023-01-27T03:56:29.309Z,101467.75
2023-01-27T03:58:57.764Z,101466.63
2023-01-27T04:01:27.810Z,101463.09
2023-01-27T04:04:13.487Z,101480.63
2023-01-27T04:06:55.241Z,101472.13
2023-01-27T04:09:24.334Z,101476.84
2023-01-27T04:11:59.215Z,101476.59
2023-01-27T04:14:28.839Z,101476.16
2023-01-27T04:16:59.213Z,101484.66
2023-01-27T04:19:34.074Z,101489.38
2023-01-27T04:22:05.996Z,101480.75
2023-01-27T04:24:34.392Z,101489.72
2023-01-27T04:27:03.667Z,101487.22
2023-01-27T04:29:32.658Z,101491.72
2023-01-27T04:32:02.350Z,101466.38
2023-01-27T04:34:33.779Z,101491.34
2023-01-27T04:37:04.009Z,101503.31
2023-01-27T04:39:31.825Z,101498.88
2023-01-27T04:41:59.647Z,101498.25
2023-01-27T04:44:28.193Z,101490.00
2023-01-27T04:46:56.405Z,101498.34
2023-01-27T04:49:26.795Z,101500.75
2023-01-27T04:51:55.160Z,101504.13
2023-01-27T04:54:23.271Z,101497.16
2023-01-27T04:56:58.585Z,101492.66
2023-01-27T04:59:27.038Z,101512.75
2023-01-27T05:01:54.861Z,101499.25
2023-01-27T05:04:23.068Z,101502.75
2023-01-27T05:06:52.775Z,101507.53
2023-01-27T05:09:20.529Z,101502.09
2023-01-27T05:11:48.386Z,101512.34
2023-01-27T05:14:16.677Z,101518.00
2023-01-27T05:16:44.314Z,101519.59
2023-01-27T05:19:12.556Z,101515.56
2023-01-27T05:21:43.647Z,101519.59
2023-01-27T05:24:13.556Z,101528.94
2023-01-27T05:26:41.820Z,101528.72
2023-01-27T05:29:10.348Z,101528.75
2023-01-27T05:31:40.216Z,101528.31
2023-01-27T05:34:08.504Z,101527.16
2023-01-27T05:36:36.280Z,101521.06
2023-01-27T05:39:05.273Z,101527.16
2023-01-27T05:41:35.621Z,101521.34
2023-01-27T05:44:03.897Z,101534.25
2023-01-27T05:46:35.097Z,101531.13
2023-01-27T05:49:04.723Z,101534.38
2023-01-27T05:51:34.210Z,101539.09
2023-01-27T05:54:03.048Z,101533.50
2023-01-27T05:56:31.518Z,101536.44
2023-01-27T05:59:01.050Z,101535.25
2023-01-27T06:01:30.395Z,101547.31
2023-01-27T06:03:58.955Z,101539.09
2023-01-27T06:06:28.007Z,101547.56
2023-01-27T06:08:56.275Z,101558.41
2023-01-27T06:11:25.158Z,101549.59
2023-01-27T06:13:54.131Z,101552.31
2023-01-27T06:16:24.726Z,101555.63
2023-01-27T06:18:53.289Z,101569.41
2023-01-27T06:21:21.266Z,101562.78
2023-01-27T06:23:49.755Z,101565.72
2023-01-27T06:26:19.603Z,101571.00
2023-01-27T06:28:47.473Z,101559.88
2023-01-27T06:31:16.618Z,101572.03
2023-01-27T06:33:46.561Z,101565.50
2023-01-27T06:36:15.587Z,101568.13
2023-01-27T06:38:43.939Z,101560.53
2023-01-27T06:41:12.561Z,101567.91
2023-01-27T06:43:40.235Z,101578.72
2023-01-27T06:46:16.885Z,101583.78
2023-01-27T06:48:46.765Z,101579.75
2023-01-27T06:51:14.734Z,101585.97
2023-01-27T06:53:42.826Z,101582.53
2023-01-27T06:56:11.130Z,101579.81
2023-01-27T06:58:38.937Z,101580.72
2023-01-27T07:01:08.828Z,101590.44
2023-01-27T07:03:37.226Z,101577.66
2023-01-27T07:06:06.871Z,101587.19
2023-01-27T07:08:35.007Z,101593.84
2023-01-27T07:11:03.858Z,101593.16
2023-01-27T07:13:35.260Z,101597.59
2023-01-27T07:16:03.795Z,101603.41
2023-01-27T07:18:35.473Z,101606.63
2023-01-27T07:21:07.251Z,101602.94
2023-01-27T07:23:35.394Z,101611.69
2023-01-27T07:26:09.836Z,101616.75
2023-01-27T07:28:44.195Z,101610.94
2023-01-27T07:31:12.429Z,101625.69
2023-01-27T07:33:40.577Z,101622.16
2023-01-27T07:36:10.684Z,101629.88
2023-01-27T07:38:39.068Z,101629.66
2023-01-27T07:41:07.133Z,101635.78
2023-01-27T07:43:35.168Z,101628.63
2023-01-27T07:46:02.990Z,101621.13
2023-01-27T07:48:30.970Z,101624.94
2023-01-27T07:50:58.896Z,101626.97
2023-01-27T07:53:28.357Z,101625.97
2023-01-27T07:55:56.203Z,101633.50
2023-01-27T07:58:24.185Z,101630.63
2023-01-27T08:00:55.106Z,101631.03
2023-01-27T08:03:23.853Z,101635.88
2023-01-27T08:05:51.821Z,101628.41
2023-01-27T08:08:20.302Z,101632.88
2023-01-27T08:10:51.633Z,101632.53
2023-01-27T08:13:19.659Z,101633.72
2023-01-27T08:15:47.581Z,101639.66
2023-01-27T08:18:15.502Z,101635.88
2023-01-27T08:20:45.677Z,101642.25
2023-01-27T08:23:13.745Z,101627.28
2023-01-27T08:25:41.691Z,101632.94
2023-01-27T08:28:11.228Z,101640.00
2023-01-27T08:30:39.465Z,101629.78
2023-01-27T08:33:07.944Z,101641.41
2023-01-27T08:35:37.267Z,101643.28
2023-01-27T08:38:05.571Z,101646.16
2023-01-27T08:40:34.620Z,101652.97
2023-01-27T08:43:04.960Z,101653.09
2023-01-27T08:45:35.278Z,101646.66
2023-01-27T08:48:03.728Z,101649.19
2023-01-27T08:50:31.698Z,101654.94
2023-01-27T08:53:01.105Z,101650.59
2023-01-27T08:55:28.997Z,101659.66
2023-01-27T08:57:56.934Z,101657.22
2023-01-27T09:00:24.997Z,101674.06
2023-01-27T09:02:54.380Z,101664.22
2023-01-27T09:05:22.973Z,101667.09
2023-01-27T09:07:50.857Z,101662.13
2023-01-27T09:10:18.898Z,101667.72
2023-01-27T09:12:47.833Z,101668.78
2023-01-27T09:15:16.247Z,101661.28
2023-01-27T09:17:44.183Z,101658.25
2023-01-27T09:20:14.468Z,101662.81
2023-01-27T09:22:43.160Z,101663.50
2023-01-27T09:25:14.407Z,101673.84
2023-01-27T09:27:42.359Z,101674.47
2023-01-27T09:30:11.145Z,101677.19
2023-01-27T09:32:39.376Z,101679.13
2023-01-27T09:35:07.975Z,101688.13
2023-01-27T09:37:40.762Z,101684.50
2023-01-27T09:40:14.052Z,101688.28
2023-01-27T09:42:51.037Z,101682.53
2023-01-27T09:45:28.151Z,101690.78
2023-01-27T09:48:02.067Z,101696.97
2023-01-27T09:50:41.251Z,101692.50
2023-01-27T09:53:23.186Z,101688.19
2023-01-27T09:55:54.395Z,101703.06
2023-01-27T09:58:29.364Z,101692.25
2023-01-27T10:01:04.723Z,101692.34
2023-01-27T10:03:46.036Z,101694.19
2023-01-27T10:06:32.624Z,101700.09
2023-01-27T10:09:19.739Z,101694.16
2023-01-27T10:11:53.462Z,101698.56
2023-01-27T10:14:28.823Z,101701.09
2023-01-27T10:17:07.207Z,101697.81
2023-01-27T10:19:42.563Z,101693.13
2023-01-27T10:22:16.967Z,101690.41
2023-01-27T10:24:58.322Z,101690.34
2023-01-27T10:27:28.517Z,101691.94
2023-01-27T10:29:58.869Z,101681.91
2023-01-27T10:32:28.339Z,101684.53
2023-01-27T10:35:05.598Z,101684.72
2023-01-27T10:37:37.322Z,101687.22
2023-01-27T10:40:10.366Z,101681.56
2023-01-27T10:42:43.815Z,101680.16
2023-01-27T10:45:18.191Z,101683.66
2023-01-27T10:47:55.259Z,101675.13
2023-01-27T10:50:27.131Z,101680.31
2023-01-27T10:52:59.625Z,101683.44
2023-01-27T10:55:32.100Z,101680.63
2023-01-27T10:58:05.477Z,101678.31
2023-01-27T11:03:27.915Z,101663.91
2023-01-27T11:06:00.072Z,101675.09
2023-01-27T11:08:30.757Z,101677.56
2023-01-27T11:11:19.599Z,101676.84
2023-01-27T11:13:51.112Z,101671.19
2023-01-27T11:16:21.729Z,101659.41
2023-01-27T11:18:56.052Z,101662.03
2023-01-27T11:21:26.404Z,101667.97
2023-01-27T11:23:59.418Z,101655.47
2023-01-27T11:26:32.277Z,101658.22
2023-01-27T11:29:10.138Z,101661.56
2023-01-27T11:31:41.697Z,101662.25
2023-01-27T11:34:14.786Z,101661.44
2023-01-27T11:36:42.998Z,101646.34
2023-01-27T11:39:11.037Z,101637.63
2023-01-27T11:41:39.794Z,101650.03
2023-01-27T11:44:14.161Z,101646.19
2023-01-27T11:46:43.474Z,101648.28
2023-01-27T11:49:11.409Z,101651.69
2023-01-27T11:51:41.023Z,101646.66
2023-01-27T11:54:14.060Z,101642.94
2023-01-27T11:56:44.053Z,101644.16
2023-01-27T11:59:17.624Z,101644.53
2023-01-27T12:01:49.526Z,101644.84
2023-01-27T12:04:21.405Z,101644.22
2023-01-27T12:06:52.452Z,101644.78
2023-01-27T12:09:33.629Z,101650.31
2023-01-27T12:12:12.739Z,101648.13
2023-01-27T12:14:48.750Z,101650.03
2023-01-27T12:17:21.093Z,101651.59
2023-01-27T12:19:49.062Z,101646.66
2023-01-27T12:22:23.535Z,101655.25
2023-01-27T12:24:54.014Z,101639.53
2023-01-27T12:27:24.188Z,101645.56
2023-01-27T12:29:55.635Z,101647.34
2023-01-27T12:32:25.432Z,101639.53
2023-01-27T12:34:56.407Z,101647.88
2023-01-27T12:37:25.509Z,101630.69
2023-01-27T12:39:57.195Z,101643.31
2023-01-27T12:42:38.029Z,101627.31
2023-01-27T12:45:26.545Z,101643.16
2023-01-27T12:48:04.562Z,101630.72
2023-01-27T12:50:33.418Z,101627.91
2023-01-27T12:53:11.955Z,101630.41
2023-01-27T12:55:41.698Z,101631.88
2023-01-27T12:58:28.733Z,101621.84
2023-01-27T13:00:57.688Z,101620.75
2023-01-27T13:03:27.618Z,101626.44
2023-01-27T13:05:56.696Z,101618.47
2023-01-27T13:08:26.420Z,101618.69
2023-01-27T13:10:56.040Z,101618.84
2023-01-27T13:13:26.460Z,101613.13
2023-01-27T13:15:56.024Z,101620.03
2023-01-27T13:18:23.988Z,101618.31
2023-01-27T13:20:56.610Z,101610.16
2023-01-27T13:23:24.892Z,101618.38
2023-01-27T13:25:54.559Z,101614.19
2023-01-27T13:28:25.749Z,101625.38
2023-01-27T13:30:55.395Z,101622.59
2023-01-27T13:36:30.624Z,101623.28
2023-01-27T13:39:01.179Z,101617.34
2023-01-27T13:41:32.344Z,101619.13
2023-01-27T13:44:03.410Z,101617.41
2023-01-27T13:46:32.787Z,101624.25
2023-01-27T13:49:06.171Z,101629.50
2023-01-27T13:51:38.089Z,101621.16
2023-01-27T13:54:07.244Z,101624.91
2023-01-27T13:56:45.182Z,101625.91
2023-01-27T13:59:25.963Z,101630.69
2023-01-27T14:01:57.042Z,101623.34
2023-01-27T14:04:36.298Z,101627.31
2023-01-27T14:07:13.285Z,101630.84
2023-01-27T14:09:46.068Z,101645.34
2023-01-27T14:12:19.674Z,101648.94
2023-01-27T14:14:58.759Z,101640.16
2023-01-27T14:17:42.656Z,101647.00
2023-01-27T14:20:24.867Z,101649.19
2023-01-27T14:22:59.681Z,101654.81
2023-01-27T14:25:33.598Z,101666.81
2023-01-27T14:28:10.054Z,101654.38
2023-01-27T14:30:42.043Z,101661.28
2023-01-27T14:33:13.921Z,101657.78
2023-01-27T14:35:45.067Z,101667.59
2023-01-27T14:38:18.059Z,101668.25
2023-01-27T14:40:53.720Z,101679.16
2023-01-27T14:43:27.187Z,101676.06
2023-01-27T14:45:57.892Z,101671.41
2023-01-27T14:48:37.782Z,101680.88
2023-01-27T14:51:09.633Z,101677.66
2023-01-27T14:53:45.379Z,101673.91
2023-01-27T14:56:20.759Z,101677.88
2023-01-27T14:58:56.215Z,101678.72
2023-01-27T15:01:29.603Z,101686.59
2023-01-27T15:04:12.234Z,101681.06
2023-01-27T15:06:46.274Z,101671.25
2023-01-27T15:09:22.602Z,101674.88
2023-01-27T15:12:03.176Z,101684.28
2023-01-27T15:14:54.565Z,101688.22
2023-01-27T15:17:29.372Z,101690.38
2023-01-27T15:20:07.526Z,101691.72
2023-01-27T15:22:44.466Z,101693.44
2023-01-27T15:25:20.668Z,101707.22
2023-01-27T15:27:50.896Z,101703.47
2023-01-27T15:30:22.873Z,101701.38
2023-01-27T15:32:50.693Z,101699.94
2023-01-27T15:35:30.501Z,101706.69
2023-01-27T15:38:00.573Z,101710.00
2023-01-27T15:40:30.259Z,101706.41
2023-01-27T15:43:10.792Z,101711.50
2023-01-27T15:45:39.595Z,101713.09
2023-01-27T15:48:09.110Z,101714.25
2023-01-27T15:50:39.720Z,101713.97
2023-01-27T15:53:13.691Z,101717.78
2023-01-27T15:55:49.275Z,101716.78
2023-01-27T15:58:24.307Z,101719.13
2023-01-27T16:00:53.968Z,101709.84
2023-01-27T16:03:26.412Z,101721.97
2023-01-27T16:05:59.928Z,101718.13
2023-01-27T16:08:33.517Z,101727.66
2023-01-27T16:11:20.843Z,101715.69
2023-01-27T16:13:51.476Z,101714.28
2023-01-27T16:16:34.898Z,101716.38
2023-01-27T16:19:08.564Z,101728.41
2023-01-27T16:21:42.532Z,101729.00
2023-01-27T16:24:15.814Z,101732.13
2023-01-27T16:26:47.771Z,101733.13
2023-01-27T16:29:28.396Z,101739.88
2023-01-27T16:32:00.572Z,101745.41
2023-01-27T16:34:34.990Z,101748.09
2023-01-27T16:37:07.246Z,101748.09
2023-01-27T16:39:39.205Z,101752.50
2023-01-27T16:42:17.843Z,101747.50
2023-01-27T16:44:49.236Z,101754.16
2023-01-27T16:47:23.211Z,101754.69
2023-01-27T16:49:51.318Z,101758.66
2023-01-27T16:52:24.566Z,101761.69
2023-01-27T16:54:56.563Z,101767.69
2023-01-27T16:57:35.135Z,101763.50
2023-01-27T17:00:07.927Z,101761.00
2023-01-27T17:02:36.875Z,101764.75
2023-01-27T17:05:06.993Z,101766.44
2023-01-27T17:07:35.225Z,101764.91
2023-01-27T17:10:06.662Z,101775.81
2023-01-27T17:12:37.249Z,101778.88
2023-01-27T17:15:18.042Z,101775.44
2023-01-27T17:17:46.588Z,101786.66
2023-01-27T17:20:22.898Z,101787.91
2023-01-27T17:25:43.263Z,101795.41
2023-01-27T17:28:14.047Z,101794.53
2023-01-27T17:30:46.653Z,101795.06
2023-01-27T17:33:18.279Z,101794.25
2023-01-27T17:35:50.830Z,101786.66
2023-01-27T17:38:20.914Z,101789.28
2023-01-27T17:40:49.651Z,101798.13
2023-01-27T17:43:29.880Z,101790.63
2023-01-27T17:46:16.370Z,101792.19
2023-01-27T17:48:47.555Z,101799.06
2023-01-27T17:51:19.734Z,101800.59
2023-01-27T17:53:48.979Z,101801.59
2023-01-27T17:56:19.216Z,101808.38
2023-01-27T17:58:51.445Z,101811.69
2023-01-27T18:01:24.238Z,101807.97
2023-01-27T18:03:54.350Z,101807.78
2023-01-27T18:06:24.424Z,101811.66
2023-01-27T18:08:53.048Z,101807.50
2023-01-27T18:11:31.531Z,101810.13
2023-01-27T18:14:01.311Z,101809.31
2023-01-27T18:16:31.286Z,101813.69
2023-01-27T18:19:09.948Z,101813.28
2023-01-27T18:21:37.909Z,101810.22
2023-01-27T18:24:11.499Z,101809.81
2023-01-27T18:26:41.852Z,101811.91
2023-01-27T18:29:17.410Z,101816.25
2023-01-27T18:34:46.913Z,101809.16
2023-01-27T18:37:24.752Z,101820.22
2023-01-27T18:39:52.565Z,101816.47
2023-01-27T18:42:21.027Z,101814.53
2023-01-27T18:44:50.195Z,101820.66
2023-01-27T18:47:30.034Z,101826.09
2023-01-27T18:50:02.766Z,101831.25
2023-01-27T18:52:30.787Z,101830.78
2023-01-27T18:55:01.513Z,101830.75
2023-01-27T18:57:31.392Z,101829.94
2023-01-27T18:59:59.215Z,101834.47
2023-01-27T19:02:28.087Z,101830.16
2023-01-27T19:04:59.914Z,101826.31
2023-01-27T19:07:27.798Z,101831.56
2023-01-27T19:09:55.395Z,101838.31
2023-01-27T19:12:23.191Z,101841.13
2023-01-27T19:14:51.040Z,101843.47
2023-01-27T19:17:23.076Z,101836.25
2023-01-27T19:19:51.172Z,101837.34
2023-01-27T19:22:20.879Z,101843.16
2023-01-27T19:24:50.622Z,101842.56
2023-01-27T19:27:19.782Z,101850.88
2023-01-27T19:29:47.425Z,101845.34
2023-01-27T19:32:16.172Z,101850.19
2023-01-27T19:34:44.082Z,101856.72
2023-01-27T19:37:19.703Z,101857.72
2023-01-27T19:39:49.362Z,101858.34
2023-01-27T19:42:17.307Z,101857.31
2023-01-27T19:44:46.090Z,101862.72
2023-01-27T19:47:14.632Z,101863.38
2023-01-27T19:49:42.403Z,101862.44
2023-01-27T19:52:11.131Z,101864.84
2023-01-27T19:54:38.982Z,101866.63
2023-01-27T19:57:11.323Z,101865.53
2023-01-27T19:59:39.339Z,101877.94
2023-01-27T20:02:07.654Z,101873.81
2023-01-27T20:04:35.452Z,101872.81
2023-01-27T20:07:03.380Z,101876.69
2023-01-27T20:09:31.154Z,101883.03
2023-01-27T20:11:58.895Z,101882.13
2023-01-27T20:17:16.619Z,101885.56
2023-01-27T20:19:44.428Z,101881.69
2023-01-27T20:22:15.586Z,101890.00
2023-01-27T20:24:43.371Z,101879.59
2023-01-27T20:27:11.203Z,101884.75
2023-01-27T20:29:42.288Z,101887.66
2023-01-27T20:32:09.938Z,101879.75
2023-01-27T20:34:38.554Z,101882.13
2023-01-27T20:37:06.878Z,101874.91
2023-01-27T20:39:34.680Z,101882.53
2023-01-27T20:42:02.278Z,101882.53
2023-01-27T20:44:30.621Z,101875.34
2023-01-27T20:47:00.882Z,101878.28
2023-01-27T20:49:28.640Z,101880.16
2023-01-27T20:51:57.426Z,101876.03
2023-01-27T20:54:25.262Z,101877.13
2023-01-27T20:56:52.932Z,101872.28
2023-01-27T20:59:21.220Z,101874.50
2023-01-27T21:01:49.677Z,101866.47
2023-01-27T21:04:18.755Z,101865.25
2023-01-27T21:06:46.980Z,101869.50
2023-01-27T21:09:14.851Z,101868.97
2023-01-27T21:11:43.645Z,101876.47
2023-01-27T21:14:19.280Z,101881.72
2023-01-27T21:16:50.120Z,101884.34
2023-01-27T21:19:20.119Z,101883.22
2023-01-27T21:21:49.846Z,101887.22
2023-01-27T21:24:17.708Z,101889.72
2023-01-27T21:26:45.522Z,101883.38
2023-01-27T21:29:15.132Z,101883.63
2023-01-27T21:31:42.978Z,101875.09
2023-01-27T21:34:11.985Z,101877.41
2023-01-27T21:36:41.127Z,101868.16
2023-01-27T21:39:08.860Z,101868.97
2023-01-27T21:41:54.339Z,101861.78
2023-01-27T21:44:40.480Z,101865.13
2023-01-27T21:47:09.078Z,101855.16
2023-01-27T21:49:58.684Z,101861.63
2023-01-27T21:52:31.552Z,101857.66
2023-01-27T21:55:01.397Z,101855.13
2023-01-27T21:57:29.175Z,101858.16
2023-01-27T21:59:59.953Z,101849.88
2023-01-27T22:02:32.153Z,101860.78
2023-01-27T22:05:00.079Z,101854.56
2023-01-27T22:07:34.286Z,101854.84
2023-01-27T22:10:04.625Z,101855.94
2023-01-27T22:12:32.574Z,101862.03
2023-01-27T22:15:00.382Z,101853.75
2023-01-27T22:17:28.364Z,101866.19
2023-01-27T22:19:56.278Z,101855.41
2023-01-27T22:22:24.106Z,101855.69
2023-01-27T22:24:53.551Z,101856.66
2023-01-27T22:27:30.282Z,101861.78
2023-01-27T22:29:58.797Z,101859.31
2023-01-27T22:32:26.909Z,101865.41
2023-01-27T22:34:57.703Z,101865.00
2023-01-27T22:37:25.812Z,101855.72
2023-01-27T22:39:55.203Z,101856.44
2023-01-27T22:42:23.043Z,101849.06
2023-01-27T22:44:52.378Z,101850.31
2023-01-27T22:47:20.516Z,101849.63
2023-01-27T22:49:48.265Z,101855.84
2023-01-27T22:52:16.784Z,101854.06
2023-01-27T22:54:44.633Z,101846.59
2023-01-27T22:57:13.880Z,101847.44
2023-01-27T22:59:41.890Z,101845.47
2023-01-27T23:02:09.663Z,101844.13
2023-01-27T23:04:37.594Z,101836.34
2023-01-27T23:07:05.545Z,101846.84
2023-01-27T23:09:33.399Z,101844.50
2023-01-27T23:12:01.192Z,101839.66
2023-01-27T23:14:33.740Z,101842.97
2023-01-27T23:17:02.525Z,101847.16
2023-01-27T23:19:30.790Z,101855.13
2023-01-27T23:21:58.997Z,101846.28
2023-01-27T23:24:27.035Z,101852.25
2023-01-27T23:26:55.809Z,101844.94
2023-01-27T23:29:25.615Z,101854.06
2023-01-27T23:31:55.818Z,101856.69
2023-01-27T23:34:24.251Z,101860.13
2023-01-27T23:36:52.304Z,101867.59
2023-01-27T23:39:22.062Z,101865.66
2023-01-27T23:41:52.517Z,101871.22
2023-01-27T23:44:20.358Z,101873.13
2023-01-27T23:46:48.158Z,101872.44
2023-01-27T23:52:07.386Z,101870.34
2023-01-27T23:54:35.747Z,101865.94
2023-01-27T23:57:05.841Z,101863.00
2023-01-27T23:59:33.618Z,101864.53
